createdAt,value
2018-05-25T00:01:56.492Z,3.95
2018-05-25T00:04:25.278Z,5.50
2018-05-25T00:06:54.139Z,4.75
2018-05-25T00:09:22.823Z,4.72
2018-05-25T00:11:53.031Z,5.18
2018-05-25T00:14:21.954Z,3.53
2018-05-25T00:16:58.750Z,5.55
2018-05-25T00:19:27.389Z,4.20
2018-05-25T00:21:56.007Z,4.45
2018-05-25T00:24:24.687Z,5.43
2018-05-25T00:26:53.316Z,5.05
2018-05-25T00:29:22.034Z,3.65
2018-05-25T00:31:53.252Z,5.05
2018-05-25T00:34:26.282Z,5.35
2018-05-25T00:37:00.362Z,6.72
2018-05-25T00:39:32.390Z,4.18
2018-05-25T00:42:01.070Z,5.18
2018-05-25T00:44:30.605Z,3.80
2018-05-25T00:47:00.516Z,5.90
2018-05-25T00:49:30.627Z,4.05
2018-05-25T00:51:59.293Z,3.90
2018-05-25T00:54:28.332Z,4.80
2018-05-25T00:56:58.812Z,4.62
2018-05-25T00:59:27.531Z,5.37
2018-05-25T01:01:58.054Z,3.95
2018-05-25T01:04:26.714Z,4.60
2018-05-25T01:06:55.359Z,5.82
2018-05-25T01:09:35.953Z,5.50
2018-05-25T01:14:44.384Z,5.77
2018-05-25T01:17:13.499Z,4.83
2018-05-25T01:19:45.433Z,4.60
2018-05-25T01:22:14.134Z,5.33
2018-05-25T01:24:42.784Z,8.60
2018-05-25T01:27:11.529Z,6.07
2018-05-25T01:29:42.583Z,4.50
2018-05-25T01:32:12.843Z,6.90
2018-05-25T01:34:43.121Z,5.27
2018-05-25T01:37:12.386Z,5.83
2018-05-25T01:39:42.993Z,6.00
2018-05-25T01:42:13.540Z,7.67
2018-05-25T01:44:42.201Z,7.20
2018-05-25T01:47:14.852Z,4.43
2018-05-25T01:49:44.501Z,5.37
2018-05-25T01:52:14.536Z,4.90
2018-05-25T01:54:44.678Z,5.30
2018-05-25T01:57:25.943Z,5.03
2018-05-25T01:59:55.560Z,7.07
2018-05-25T02:02:24.337Z,6.60
2018-05-25T02:04:55.612Z,6.10
2018-05-25T02:07:26.209Z,7.00
2018-05-25T02:10:02.798Z,6.37
2018-05-25T02:12:34.507Z,8.50
2018-05-25T02:15:04.584Z,8.93
2018-05-25T02:17:41.743Z,7.17
2018-05-25T02:20:10.666Z,5.10
2018-05-25T02:22:39.557Z,4.77
2018-05-25T02:25:10.365Z,8.47
2018-05-25T02:27:43.157Z,7.63
2018-05-25T02:30:13.214Z,6.47
2018-05-25T02:32:42.199Z,4.90
2018-05-25T02:35:11.015Z,4.67
2018-05-25T02:37:41.311Z,5.43
2018-05-25T02:40:11.344Z,5.93
2018-05-25T02:42:49.476Z,6.77
2018-05-25T02:45:18.801Z,6.03
2018-05-25T02:47:50.136Z,5.80
2018-05-25T02:50:24.673Z,4.53
2018-05-25T02:52:59.496Z,5.68
2018-05-25T02:55:29.648Z,7.13
2018-05-25T02:58:01.206Z,4.90
2018-05-25T03:00:42.881Z,6.53
2018-05-25T03:03:11.779Z,6.07
2018-05-25T03:05:44.957Z,7.20
2018-05-25T03:08:14.477Z,5.13
2018-05-25T03:10:47.457Z,5.93
2018-05-25T03:13:16.696Z,4.77
2018-05-25T03:15:57.335Z,5.47
2018-05-25T03:21:18.701Z,6.47
2018-05-25T03:23:47.653Z,6.07
2018-05-25T03:26:37.070Z,5.83
2018-05-25T03:29:06.256Z,8.95
2018-05-25T03:31:35.042Z,5.93
2018-05-25T03:34:04.193Z,6.35
2018-05-25T03:36:32.897Z,5.63
2018-05-25T03:39:01.509Z,8.80
2018-05-25T03:41:30.158Z,5.70
2018-05-25T03:43:58.765Z,7.00
2018-05-25T03:46:27.404Z,6.13
2018-05-25T03:48:56.048Z,6.63
2018-05-25T03:51:24.698Z,5.97
2018-05-25T03:53:53.368Z,5.17
2018-05-25T03:56:21.940Z,7.80
2018-05-25T03:59:28.802Z,7.43
2018-05-25T04:02:00.250Z,5.53
2018-05-25T04:04:31.900Z,5.85
2018-05-25T04:07:00.495Z,5.85
2018-05-25T04:09:29.233Z,8.85
2018-05-25T04:11:59.089Z,6.00
2018-05-25T04:14:27.962Z,7.10
2018-05-25T04:16:56.833Z,7.93
2018-05-25T04:19:25.782Z,7.90
2018-05-25T04:21:55.011Z,8.07
2018-05-25T04:24:25.202Z,7.32
2018-05-25T04:26:53.981Z,6.85
2018-05-25T04:29:22.806Z,7.00
2018-05-25T04:31:53.236Z,5.45
2018-05-25T04:34:22.612Z,6.87
2018-05-25T04:36:51.858Z,7.37
2018-05-25T04:39:22.545Z,7.43
2018-05-25T04:41:51.584Z,9.68
2018-05-25T04:44:23.310Z,7.25
2018-05-25T04:46:52.435Z,8.00
2018-05-25T04:49:24.792Z,6.12
2018-05-25T04:51:53.644Z,8.00
2018-05-25T04:54:23.829Z,7.60
2018-05-25T04:56:54.877Z,6.90
2018-05-25T04:59:23.803Z,6.05
2018-05-25T05:01:52.949Z,6.00
2018-05-25T05:04:32.431Z,6.40
2018-05-25T05:07:01.407Z,6.10
2018-05-25T05:09:31.782Z,5.80
2018-05-25T05:12:01.080Z,7.68
2018-05-25T05:14:29.959Z,8.25
2018-05-25T05:16:58.675Z,6.85
2018-05-25T05:19:28.112Z,11.73
2018-05-25T05:21:59.628Z,6.97
2018-05-25T05:24:32.751Z,6.65
2018-05-25T05:27:02.207Z,7.68
2018-05-25T05:29:32.092Z,6.05
2018-05-25T05:32:00.756Z,9.48
2018-05-25T05:34:32.533Z,5.75
2018-05-25T05:37:01.762Z,8.80
2018-05-25T05:39:32.093Z,7.30
2018-05-25T05:42:02.901Z,6.78
2018-05-25T05:44:31.926Z,7.60
2018-05-25T05:47:00.618Z,9.00
2018-05-25T05:49:29.507Z,8.68
2018-05-25T05:51:58.627Z,7.25
2018-05-25T05:54:27.337Z,7.50
2018-05-25T05:56:56.531Z,10.40
2018-05-25T05:59:27.085Z,6.15
2018-05-25T06:01:55.853Z,9.20
2018-05-25T06:04:38.940Z,10.43
2018-05-25T06:07:08.636Z,10.60
2018-05-25T06:09:37.720Z,8.15
2018-05-25T06:12:06.719Z,6.93
2018-05-25T06:14:40.031Z,7.20
2018-05-25T06:17:10.376Z,9.68
2018-05-25T06:19:40.980Z,7.03
2018-05-25T06:22:10.865Z,7.37
2018-05-25T06:24:41.305Z,7.03
2018-05-25T06:27:13.970Z,6.87
2018-05-25T06:29:42.898Z,6.60
2018-05-25T06:32:13.171Z,8.95
2018-05-25T06:34:44.672Z,7.28
2018-05-25T06:40:04.602Z,6.85
2018-05-25T06:42:37.914Z,7.53
2018-05-25T06:45:09.658Z,7.22
2018-05-25T06:47:41.102Z,7.25
2018-05-25T06:50:14.991Z,7.90
2018-05-25T06:52:49.537Z,9.00
2018-05-25T06:55:19.974Z,8.50
2018-05-25T06:57:48.818Z,6.78
2018-05-25T07:00:18.293Z,6.60
2018-05-25T07:02:52.153Z,7.43
2018-05-25T07:05:23.596Z,9.25
2018-05-25T07:07:53.999Z,8.70
2018-05-25T07:10:29.649Z,10.07
2018-05-25T07:12:59.156Z,9.15
2018-05-25T07:15:29.514Z,9.20
2018-05-25T07:17:59.644Z,6.68
2018-05-25T07:20:32.511Z,8.40
2018-05-25T07:23:05.355Z,7.25
2018-05-25T07:25:37.008Z,9.07
2018-05-25T07:28:05.663Z,8.85
2018-05-25T07:30:34.781Z,10.20
2018-05-25T07:33:03.513Z,8.35
2018-05-25T07:35:32.451Z,7.50
2018-05-25T07:38:01.511Z,7.87
2018-05-25T07:40:30.209Z,7.65
2018-05-25T07:42:59.289Z,9.00
2018-05-25T07:45:27.967Z,8.40
2018-05-25T07:47:56.623Z,11.10
2018-05-25T07:50:25.690Z,9.48
2018-05-25T07:52:55.448Z,8.27
2018-05-25T07:55:24.473Z,8.20
2018-05-25T07:57:53.238Z,8.98
2018-05-25T08:00:22.025Z,9.20
2018-05-25T08:02:51.036Z,10.40
2018-05-25T08:05:19.742Z,9.73
2018-05-25T08:08:05.478Z,10.05
2018-05-25T08:10:34.161Z,9.02
2018-05-25T08:13:05.100Z,7.62
2018-05-25T08:15:33.703Z,8.32
2018-05-25T08:18:02.742Z,9.13
2018-05-25T08:20:31.395Z,8.63
2018-05-25T08:23:18.492Z,7.45
2018-05-25T08:25:49.375Z,10.15
2018-05-25T08:28:19.264Z,7.22
2018-05-25T08:30:48.860Z,6.95
2018-05-25T08:33:18.831Z,9.20
2018-05-25T08:35:49.545Z,8.40
2018-05-25T08:38:18.197Z,7.05
2018-05-25T08:40:47.274Z,7.32
2018-05-25T08:43:15.925Z,8.07
2018-05-25T08:45:44.821Z,6.35
2018-05-25T08:48:13.486Z,7.55
2018-05-25T08:50:42.821Z,6.68
2018-05-25T08:53:11.499Z,6.22
2018-05-25T08:55:40.373Z,7.68
2018-05-25T08:58:09.222Z,8.52
2018-05-25T09:00:38.238Z,10.98
2018-05-25T09:03:06.889Z,4.65
2018-05-25T09:05:35.547Z,5.97
2018-05-25T09:08:05.931Z,7.82
2018-05-25T09:10:37.126Z,5.82
2018-05-25T09:13:06.048Z,5.85
2018-05-25T09:15:34.940Z,5.22
2018-05-25T09:18:04.337Z,5.75
2018-05-25T09:20:32.963Z,6.20
2018-05-25T09:23:01.951Z,5.35
2018-05-25T09:25:30.611Z,4.22
2018-05-25T09:28:01.380Z,6.43
2018-05-25T09:30:30.038Z,4.65
2018-05-25T09:32:58.890Z,5.40
2018-05-25T09:35:27.558Z,4.93
2018-05-25T09:37:56.826Z,5.22
2018-05-25T09:40:25.709Z,7.57
2018-05-25T09:42:54.521Z,6.28
2018-05-25T09:45:23.210Z,6.65
2018-05-25T09:47:51.813Z,5.40
2018-05-25T09:50:22.990Z,7.80
2018-05-25T09:52:51.751Z,4.65
2018-05-25T09:55:20.861Z,6.53
2018-05-25T09:57:58.819Z,5.05
2018-05-25T10:00:27.441Z,4.32
2018-05-25T10:02:56.107Z,3.47
2018-05-25T10:05:25.048Z,5.95
2018-05-25T10:07:53.738Z,5.37
2018-05-25T10:10:22.448Z,4.80
2018-05-25T10:12:52.919Z,3.42
2018-05-25T10:15:22.003Z,4.78
2018-05-25T10:17:51.179Z,5.10
2018-05-25T10:20:23.160Z,5.20
2018-05-25T10:22:51.755Z,5.53
2018-05-25T10:25:24.479Z,3.53
2018-05-25T10:27:53.290Z,4.22
2018-05-25T10:30:40.148Z,6.47
2018-05-25T10:33:09.108Z,5.10
2018-05-25T10:35:37.771Z,5.72
2018-05-25T10:38:06.798Z,7.05
2018-05-25T10:40:35.861Z,7.18
2018-05-25T10:43:04.667Z,4.50
2018-05-25T10:45:33.362Z,4.90
2018-05-25T10:48:03.886Z,3.87
2018-05-25T10:50:40.376Z,5.50
2018-05-25T10:53:17.085Z,4.75
2018-05-25T10:55:50.312Z,4.70
2018-05-25T10:58:27.499Z,3.85
2018-05-25T11:03:46.605Z,2.65
2018-05-25T11:09:04.883Z,4.75
2018-05-25T11:11:33.789Z,4.18
2018-05-25T11:14:02.514Z,3.62
2018-05-25T11:16:31.760Z,3.25
2018-05-25T11:19:00.687Z,3.50
2018-05-25T11:21:29.353Z,2.40
2018-05-25T11:24:07.740Z,3.40
2018-05-25T11:26:37.434Z,3.50
2018-05-25T11:29:13.149Z,3.85
2018-05-25T11:31:41.854Z,2.87
2018-05-25T11:34:10.529Z,3.20
2018-05-25T11:36:41.591Z,3.95
2018-05-25T11:39:11.651Z,2.35
2018-05-25T11:41:40.627Z,2.60
2018-05-25T11:44:09.316Z,4.05
2018-05-25T11:46:37.961Z,5.85
2018-05-25T11:49:06.780Z,2.78
2018-05-25T11:51:35.720Z,2.55
2018-05-25T11:54:04.329Z,2.55
2018-05-25T11:56:36.735Z,3.12
2018-05-25T11:59:06.537Z,4.28
2018-05-25T12:04:24.065Z,2.12
2018-05-25T12:06:52.956Z,3.85
2018-05-25T12:09:21.614Z,3.78
2018-05-25T12:11:50.319Z,4.25
2018-05-25T12:14:18.926Z,2.50
2018-05-25T12:16:48.372Z,3.05
2018-05-25T12:19:20.122Z,3.45
2018-05-25T12:21:49.995Z,4.70
2018-05-25T12:24:19.303Z,4.12
2018-05-25T12:26:48.034Z,3.62
2018-05-25T12:29:16.924Z,3.22
2018-05-25T12:31:45.579Z,2.70
2018-05-25T12:34:14.393Z,5.32
2018-05-25T12:36:43.106Z,4.50
2018-05-25T12:39:12.212Z,4.40
2018-05-25T12:41:43.360Z,3.10
2018-05-25T12:44:12.257Z,5.20
2018-05-25T12:46:44.720Z,3.85
2018-05-25T12:49:14.750Z,3.78
2018-05-25T12:51:58.770Z,4.82
2018-05-25T12:57:24.864Z,5.22
2018-05-25T12:59:59.926Z,3.83
2018-05-25T13:02:31.756Z,4.07
2018-05-25T13:05:06.548Z,4.78
2018-05-25T13:07:35.841Z,4.18
2018-05-25T13:10:06.176Z,3.67
2018-05-25T13:12:35.640Z,5.62
2018-05-25T13:17:54.976Z,4.72
2018-05-25T13:20:25.824Z,4.75
2018-05-25T13:22:54.615Z,7.75
2018-05-25T13:25:23.554Z,4.03
2018-05-25T13:27:53.809Z,4.05
2018-05-25T13:30:27.138Z,4.87
2018-05-25T13:32:56.771Z,3.30
2018-05-25T13:35:29.650Z,4.37
2018-05-25T13:38:00.179Z,3.65
2018-05-25T13:40:29.240Z,4.30
2018-05-25T13:45:48.304Z,5.68
2018-05-25T13:48:17.371Z,3.30
2018-05-25T13:50:46.305Z,5.55
2018-05-25T13:53:27.773Z,4.93
2018-05-25T13:58:48.987Z,6.85
2018-05-25T14:01:20.432Z,3.65
2018-05-25T14:03:52.643Z,4.95
2018-05-25T14:06:21.468Z,3.47
2018-05-25T14:08:51.967Z,4.65
2018-05-25T14:11:21.082Z,4.90
2018-05-25T14:13:50.973Z,4.12
2018-05-25T14:16:21.762Z,6.30
2018-05-25T14:18:53.701Z,3.92
2018-05-25T14:21:22.527Z,3.17
2018-05-25T14:23:53.153Z,4.12
2018-05-25T14:26:22.467Z,3.78
2018-05-25T14:28:55.534Z,3.92
2018-05-25T14:31:28.299Z,4.72
2018-05-25T14:33:57.141Z,5.50
2018-05-25T14:36:25.794Z,3.80
2018-05-25T14:39:05.476Z,2.95
2018-05-25T14:41:39.968Z,5.37
2018-05-25T14:44:08.747Z,2.75
2018-05-25T14:46:37.841Z,3.78
2018-05-25T14:49:06.500Z,4.30
2018-05-25T14:51:35.126Z,4.93
2018-05-25T14:54:03.815Z,2.78
2018-05-25T14:56:32.815Z,3.92
2018-05-25T14:59:03.880Z,3.90
2018-05-25T15:01:34.313Z,7.65
2018-05-25T15:04:03.127Z,5.12
2018-05-25T15:06:31.782Z,5.47
2018-05-25T15:09:00.553Z,4.00
2018-05-25T15:11:29.460Z,3.12
2018-05-25T15:13:58.506Z,4.20
2018-05-25T15:16:27.146Z,3.75
2018-05-25T15:18:56.039Z,5.53
2018-05-25T15:21:24.687Z,6.07
2018-05-25T15:23:53.339Z,5.05
2018-05-25T15:26:29.546Z,3.60
2018-05-25T15:28:59.250Z,4.72
2018-05-25T15:31:27.901Z,4.15
2018-05-25T15:33:56.627Z,3.95
2018-05-25T15:36:25.686Z,5.20
2018-05-25T15:38:54.317Z,3.22
2018-05-25T15:41:23.123Z,6.60
2018-05-25T15:43:52.026Z,5.60
2018-05-25T15:46:21.127Z,4.12
2018-05-25T15:48:49.766Z,2.80
2018-05-25T15:51:18.591Z,2.97
2018-05-25T15:53:49.707Z,4.00
2018-05-25T15:56:18.673Z,3.87
2018-05-25T15:58:55.420Z,6.28
2018-05-25T16:01:24.059Z,4.00
2018-05-25T16:03:52.695Z,3.25
2018-05-25T16:06:23.198Z,4.68
2018-05-25T16:08:52.801Z,4.87
2018-05-25T16:11:21.490Z,4.85
2018-05-25T16:13:50.724Z,5.03
2018-05-25T16:16:19.366Z,4.68
2018-05-25T16:18:47.983Z,3.72
2018-05-25T16:21:17.002Z,4.45
2018-05-25T16:23:45.615Z,6.32
2018-05-25T16:26:14.252Z,5.62
2018-05-25T16:28:42.866Z,4.87
2018-05-25T16:31:11.506Z,6.12
2018-05-25T16:33:40.135Z,2.90
2018-05-25T16:36:08.783Z,7.00
2018-05-25T16:38:37.434Z,3.12
2018-05-25T16:41:06.123Z,5.35
2018-05-25T16:43:34.754Z,3.58
2018-05-25T16:46:03.407Z,2.95
2018-05-25T16:48:32.030Z,4.30
2018-05-25T16:51:00.694Z,5.95
2018-05-25T16:56:16.906Z,4.32
2018-05-25T16:58:45.534Z,5.97
2018-05-25T17:01:14.231Z,3.33
2018-05-25T17:03:42.869Z,3.83
2018-05-25T17:06:11.623Z,5.07
2018-05-25T17:08:40.717Z,4.53
2018-05-25T17:11:09.481Z,5.62
2018-05-25T17:13:38.180Z,3.65
2018-05-25T17:16:08.373Z,4.50
2018-05-25T17:18:37.331Z,5.80
2018-05-25T17:21:06.215Z,3.12
2018-05-25T17:23:35.442Z,5.25
2018-05-25T17:26:05.346Z,7.22
2018-05-25T17:28:34.105Z,3.80
2018-05-25T17:31:03.418Z,5.80
2018-05-25T17:33:32.072Z,3.20
2018-05-25T17:36:00.943Z,4.20
2018-05-25T17:38:29.789Z,5.30
2018-05-25T17:40:58.409Z,4.03
2018-05-25T17:43:27.382Z,4.22
2018-05-25T17:45:56.047Z,3.50
2018-05-25T17:48:24.731Z,5.43
2018-05-25T17:50:53.346Z,6.25
2018-05-25T17:53:21.969Z,6.65
2018-05-25T17:55:50.809Z,6.43
2018-05-25T17:58:19.453Z,4.65
2018-05-25T18:00:48.086Z,5.03
2018-05-25T18:03:16.761Z,3.58
2018-05-25T18:05:45.393Z,3.65
2018-05-25T18:08:14.042Z,3.75
2018-05-25T18:10:42.703Z,5.20
2018-05-25T18:13:11.360Z,3.97
2018-05-25T18:15:40.006Z,6.18
2018-05-25T18:18:08.680Z,7.53
2018-05-25T18:20:37.294Z,3.65
2018-05-25T18:23:05.942Z,5.60
2018-05-25T18:25:34.571Z,5.03
2018-05-25T18:28:03.271Z,6.75
2018-05-25T18:30:31.891Z,3.83
2018-05-25T18:33:00.569Z,3.50
2018-05-25T18:35:29.161Z,5.28
2018-05-25T18:37:57.801Z,3.80
2018-05-25T18:40:28.530Z,3.40
2018-05-25T18:42:57.163Z,3.58
2018-05-25T18:45:25.806Z,4.13
2018-05-25T18:47:58.736Z,4.00
2018-05-25T18:50:27.419Z,3.42
2018-05-25T18:52:56.095Z,7.05
2018-05-25T18:55:24.999Z,6.53
2018-05-25T18:57:53.974Z,5.85
2018-05-25T19:00:22.649Z,3.37
2018-05-25T19:02:51.301Z,3.33
2018-05-25T19:05:19.930Z,5.35
2018-05-25T19:07:48.555Z,5.18
2018-05-25T19:10:17.470Z,3.33
2018-05-25T19:12:46.299Z,3.80
2018-05-25T19:15:15.232Z,5.15
2018-05-25T19:17:43.857Z,7.50
2018-05-25T19:20:12.556Z,5.22
2018-05-25T19:22:41.386Z,3.65
2018-05-25T19:27:57.882Z,3.97
2018-05-25T19:30:26.800Z,3.50
2018-05-25T19:32:55.428Z,3.53
2018-05-25T19:35:24.525Z,5.20
2018-05-25T19:37:53.190Z,4.28
2018-05-25T19:40:21.878Z,4.30
2018-05-25T19:42:50.558Z,5.50
2018-05-25T19:45:19.295Z,7.10
2018-05-25T19:47:47.928Z,5.95
2018-05-25T19:50:16.638Z,5.12
2018-05-25T19:52:45.247Z,5.72
2018-05-25T19:55:13.936Z,5.03
2018-05-25T19:57:42.573Z,4.35
2018-05-25T20:00:11.259Z,4.35
2018-05-25T20:02:39.947Z,4.82
2018-05-25T20:05:08.635Z,6.72
2018-05-25T20:07:37.265Z,4.72
2018-05-25T20:10:05.969Z,9.73
2018-05-25T20:12:34.637Z,4.47
2018-05-25T20:15:03.312Z,7.00
2018-05-25T20:17:31.967Z,5.10
2018-05-25T20:20:00.640Z,4.85
2018-05-25T20:22:29.268Z,6.45
2018-05-25T20:24:58.295Z,5.93
2018-05-25T20:27:27.538Z,5.78
2018-05-25T20:29:56.490Z,5.70
2018-05-25T20:32:25.100Z,5.50
2018-05-25T20:34:53.709Z,5.68
2018-05-25T20:37:23.269Z,8.23
2018-05-25T20:39:51.874Z,5.80
2018-05-25T20:42:21.930Z,6.30
2018-05-25T20:44:50.534Z,6.37
2018-05-25T20:47:22.180Z,5.25
2018-05-25T20:49:52.181Z,6.75
2018-05-25T20:52:21.659Z,4.82
2018-05-25T20:54:51.439Z,6.00
2018-05-25T20:57:24.960Z,7.50
2018-05-25T20:59:54.130Z,6.53
2018-05-25T21:02:24.185Z,6.25
2018-05-25T21:04:53.728Z,5.80
2018-05-25T21:07:22.858Z,6.47
2018-05-25T21:09:51.530Z,6.15
2018-05-25T21:12:20.712Z,7.47
2018-05-25T21:14:49.316Z,6.75
2018-05-25T21:17:17.980Z,10.00
2018-05-25T21:19:48.745Z,7.35
2018-05-25T21:22:17.405Z,8.82
2018-05-25T21:24:46.158Z,7.40
2018-05-25T21:27:15.186Z,6.93
2018-05-25T21:29:44.202Z,7.50
2018-05-25T21:32:14.526Z,7.37
2018-05-25T21:34:43.709Z,7.65
2018-05-25T21:37:12.854Z,6.87
2018-05-25T21:39:41.480Z,7.60
2018-05-25T21:42:10.409Z,8.68
2018-05-25T21:44:39.200Z,8.60
2018-05-25T21:47:10.352Z,5.82
2018-05-25T21:49:39.103Z,8.55
2018-05-25T21:52:07.889Z,7.82
2018-05-25T21:54:39.094Z,5.65
2018-05-25T21:57:08.070Z,5.75
2018-05-25T21:59:36.705Z,8.10
2018-05-25T22:02:05.725Z,6.82
2018-05-25T22:04:34.397Z,6.68
2018-05-25T22:07:03.034Z,7.87
2018-05-25T22:09:32.026Z,6.12
2018-05-25T22:12:00.663Z,7.53
2018-05-25T22:14:29.325Z,8.20
2018-05-25T22:16:58.369Z,9.23
2018-05-25T22:19:27.024Z,5.12
2018-05-25T22:21:55.631Z,6.50
2018-05-25T22:24:24.304Z,8.05
2018-05-25T22:26:53.408Z,5.47
2018-05-25T22:29:25.947Z,5.30
2018-05-25T22:31:54.618Z,5.87
2018-05-25T22:34:23.318Z,8.02
2018-05-25T22:36:51.955Z,6.82
2018-05-25T22:39:20.609Z,5.70
2018-05-25T22:41:59.720Z,8.30
2018-05-25T22:45:05.377Z,5.32
2018-05-25T22:48:38.115Z,6.57
2018-05-25T22:52:02.354Z,7.22
2018-05-25T22:54:42.469Z,6.07
2018-05-25T22:57:12.018Z,5.28
2018-05-25T22:59:40.685Z,10.32
2018-05-25T23:02:09.358Z,5.37
2018-05-25T23:04:37.997Z,5.97
2018-05-25T23:07:06.617Z,6.53
2018-05-25T23:09:35.565Z,6.60
2018-05-25T23:12:04.183Z,7.12
2018-05-25T23:14:32.878Z,6.25
2018-05-25T23:17:01.502Z,6.68
2018-05-25T23:19:30.207Z,6.75
2018-05-25T23:21:58.882Z,7.68
2018-05-25T23:24:27.533Z,7.20
2018-05-25T23:26:56.146Z,7.05
2018-05-25T23:29:25.128Z,6.25
2018-05-25T23:31:56.240Z,7.32
2018-05-25T23:34:28.512Z,6.37
2018-05-25T23:36:57.126Z,5.87
2018-05-25T23:39:25.779Z,7.53
2018-05-25T23:41:54.413Z,6.93
2018-05-25T23:44:23.106Z,8.30
2018-05-25T23:46:51.717Z,8.23
2018-05-25T23:49:20.656Z,5.65
2018-05-25T23:51:51.204Z,6.80
2018-05-25T23:54:19.886Z,7.55
2018-05-25T23:56:48.541Z,10.15
2018-05-25T23:59:17.210Z,8.18
